Canehill, Arkansas
Current Conditions -  °F | °C
As of 7:53 PM on Saturday 25 Oct 2014 (Local Time) from KFYV Reporting Station
Clear Clear  
Wind Chill: 18°   Ceiling: Unl
Heat Index: 18°   Visibility: 10mi
Dew Point: 18°   Wind: 5mph
Humidity: 97%   Direction: 190°S
Pressure: 30.06"   Gusts: NA
Location:  35.91°N, 94.4°W
Report Text: KFYV 260053Z AUTO 19004KT 10SM CLR 18/18 A3006 RMK AO2 SLP172 T01830178
Loading
Personal Weather Stations






























Interactive Weather Map
Tropical Storm Tracking
New forecast layout! Learn more

10-Day Weather Forecast

Advertisements
Track Severe Weather on mobile